Time;durP1;ratioP1;P1;durP2;ratioP2;P2;SDS_P1;SDS_P2;PMS_P1;PMS_P2;Temp;Humidity;BMP_temperature;BMP_pressure;BME280_temperature;BME280_humidity;BME280_pressure;Samples;Min_cycle;Max_cycle;Signal;HPM_P1;HPM_P2
2023/10/29 00:00:52;;;;;;;1.40;0.77;;;;;;;;;;4998604;28;20033;-20
2023/10/29 00:03:18;;;;;;;0.65;0.65;;;;;;;;;;4998330;28;20458;-19
2023/10/29 00:05:45;;;;;;;0.60;0.60;;;;;;;;;;4998761;28;20038;-20
2023/10/29 00:08:11;;;;;;;0.50;0.50;;;;;;;;;;4998779;28;20019;-22
2023/10/29 00:10:38;;;;;;;0.60;0.60;;;;;;;;;;4998968;28;20019;-20
2023/10/29 00:13:04;;;;;;;0.82;0.82;;;;;;;;;;4998876;28;20415;-20
2023/10/29 00:15:31;;;;;;;0.60;0.60;;;;;;;;;;4998371;28;20034;-21
2023/10/29 00:17:57;;;;;;;0.80;0.80;;;;;;;;;;4998530;28;20417;-20
2023/10/29 00:20:24;;;;;;;0.70;0.70;;;;;;;;;;4998262;28;20034;-25
2023/10/29 00:22:50;;;;;;;0.63;0.63;;;;;;;;;;4998445;28;20034;-24
2023/10/29 00:25:16;;;;;;;0.68;0.68;;;;;;;;;;4998354;28;20485;-20
2023/10/29 00:27:42;;;;;;;0.82;0.50;;;;;;;;;;4998134;28;20058;-20
2023/10/29 00:30:08;;;;;;;0.65;0.65;;;;;;;;;;4998021;28;20037;-18
2023/10/29 00:32:35;;;;;;;1.10;0.68;;;;;;;;;;4998146;28;20031;-19
2023/10/29 00:35:01;;;;;;;0.70;0.70;;;;;;;;;;4997948;28;20030;-21
2023/10/29 00:37:27;;;;;;;0.43;0.43;;;;;;;;;;4997955;28;20458;-20
2023/10/29 00:39:53;;;;;;;0.80;0.80;;;;;;;;;;4998165;28;20033;-24
2023/10/29 00:42:19;;;;;;;0.70;0.70;;;;;;;;;;4998025;28;20034;-22
2023/10/29 00:44:46;;;;;;;0.75;0.75;;;;;;;;;;4998245;28;20421;-23
2023/10/29 00:47:12;;;;;;;0.50;0.50;;;;;;;;;;4997745;28;20022;-18
2023/10/29 00:49:38;;;;;;;0.60;0.60;;;;;;;;;;4998004;28;20046;-22
2023/10/29 00:52:05;;;;;;;0.77;0.68;;;;;;;;;;4997796;28;20093;-18
2023/10/29 00:54:31;;;;;;;1.20;0.82;;;;;;;;;;4997015;28;20057;-21
2023/10/29 00:56:58;;;;;;;0.75;0.75;;;;;;;;;;4997719;28;20023;-19
2023/10/29 00:59:25;;;;;;;0.65;0.65;;;;;;;;;;4997846;28;20030;-20
2023/10/29 01:01:51;;;;;;;0.60;0.60;;;;;;;;;;4997419;28;20031;-16
2023/10/29 01:04:18;;;;;;;0.85;0.60;;;;;;;;;;4997115;28;20049;-19
2023/10/29 01:06:46;;;;;;;0.70;0.70;;;;;;;;;;4997427;28;20491;-21
2023/10/29 01:09:12;;;;;;;0.73;0.73;;;;;;;;;;4997676;28;20019;-20
2023/10/29 01:11:39;;;;;;;0.70;0.70;;;;;;;;;;4997297;28;20465;-24
2023/10/29 01:14:05;;;;;;;0.60;0.60;;;;;;;;;;4997166;28;20030;-18
2023/10/29 01:16:31;;;;;;;0.70;0.70;;;;;;;;;;4997246;28;20094;-22
2023/10/29 01:19:01;;;;;;;0.57;0.57;;;;;;;;;;4997176;28;20026;-21
2023/10/29 01:21:29;;;;;;;0.68;0.68;;;;;;;;;;4997712;28;20097;-22
2023/10/29 01:23:55;;;;;;;0.80;0.80;;;;;;;;;;4996971;28;20029;-22
2023/10/29 01:26:21;;;;;;;0.60;0.60;;;;;;;;;;4997594;28;20022;-19
2023/10/29 01:28:48;;;;;;;0.70;0.70;;;;;;;;;;4997024;28;20373;-22
2023/10/29 01:31:14;;;;;;;0.60;0.60;;;;;;;;;;4996925;28;20453;-17
2023/10/29 01:33:40;;;;;;;0.50;0.50;;;;;;;;;;4996871;28;20023;-18
2023/10/29 01:36:07;;;;;;;0.70;0.70;;;;;;;;;;4996815;28;20018;-20
2023/10/29 01:38:33;;;;;;;0.52;0.52;;;;;;;;;;4997063;28;20097;-23
2023/10/29 01:40:59;;;;;;;0.93;0.90;;;;;;;;;;4996723;28;20061;-21
2023/10/29 01:43:26;;;;;;;0.60;0.60;;;;;;;;;;4996644;28;20030;-22
2023/10/29 01:45:52;;;;;;;0.93;0.85;;;;;;;;;;4996585;28;20042;-20
2023/10/29 01:48:19;;;;;;;0.80;0.80;;;;;;;;;;4996634;28;20444;-22
2023/10/29 01:50:47;;;;;;;0.70;0.70;;;;;;;;;;4996546;28;20162;-20
2023/10/29 01:53:13;;;;;;;0.70;0.70;;;;;;;;;;4996500;28;20014;-20
2023/10/29 01:55:39;;;;;;;0.60;0.60;;;;;;;;;;4996758;28;20350;-20
2023/10/29 01:58:05;;;;;;;0.90;0.77;;;;;;;;;;4996436;28;20026;-22
2023/10/29 02:00:32;;;;;;;0.68;0.68;;;;;;;;;;4996447;28;20413;-20
2023/10/29 02:02:58;;;;;;;3.30;0.73;;;;;;;;;;4996402;28;20030;-19
2023/10/29 02:05:24;;;;;;;0.50;0.50;;;;;;;;;;4996075;28;20085;-17
2023/10/29 02:07:50;;;;;;;0.55;0.55;;;;;;;;;;4995482;28;20037;-17
2023/10/29 02:10:16;;;;;;;0.70;0.70;;;;;;;;;;4996711;28;20093;-23
2023/10/29 02:12:42;;;;;;;0.65;0.65;;;;;;;;;;4996155;28;20120;-21
2023/10/29 02:15:09;;;;;;;0.77;0.75;;;;;;;;;;4996110;28;20026;-21
2023/10/29 02:17:35;;;;;;;0.60;0.60;;;;;;;;;;4996081;28;20496;-20
2023/10/29 02:20:01;;;;;;;0.80;0.80;;;;;;;;;;4996027;28;20034;-21
2023/10/29 02:22:30;;;;;;;0.75;0.75;;;;;;;;;;4996198;28;20030;-20
2023/10/29 02:24:56;;;;;;;0.52;0.52;;;;;;;;;;4996108;28;20497;-19
2023/10/29 02:27:22;;;;;;;0.60;0.60;;;;;;;;;;4996207;28;20096;-21
2023/10/29 02:29:49;;;;;;;0.95;0.70;;;;;;;;;;4995870;28;20022;-21
2023/10/29 02:32:15;;;;;;;0.82;0.63;;;;;;;;;;4996191;28;20102;-20
2023/10/29 02:34:41;;;;;;;1.10;0.90;;;;;;;;;;4995840;28;20022;-21
2023/10/29 02:37:07;;;;;;;1.23;1.13;;;;;;;;;;4996279;28;20050;-18
2023/10/29 02:39:34;;;;;;;0.70;0.70;;;;;;;;;;4995999;28;20030;-19
2023/10/29 02:42:00;;;;;;;0.55;0.55;;;;;;;;;;4995840;28;20365;-19
2023/10/29 02:44:26;;;;;;;1.15;0.90;;;;;;;;;;4995837;28;20042;-22
2023/10/29 02:46:52;;;;;;;1.00;1.00;;;;;;;;;;4995598;28;20022;-20
2023/10/29 02:49:18;;;;;;;0.80;0.80;;;;;;;;;;4995606;28;20165;-23
2023/10/29 02:51:44;;;;;;;0.70;0.70;;;;;;;;;;4995523;28;20037;-20
2023/10/29 02:54:10;;;;;;;0.60;0.60;;;;;;;;;;4995410;28;20022;-18
2023/10/29 02:56:37;;;;;;;0.70;0.65;;;;;;;;;;4995984;28;20034;-17
2023/10/29 02:59:03;;;;;;;0.70;0.70;;;;;;;;;;4995696;28;20105;-18
2023/10/29 03:01:29;;;;;;;0.65;0.65;;;;;;;;;;4995470;28;20038;-22
2023/10/29 03:03:55;;;;;;;0.75;0.60;;;;;;;;;;4995010;28;20113;-19
2023/10/29 03:06:21;;;;;;;0.70;0.70;;;;;;;;;;4995633;28;20121;-21
2023/10/29 03:08:48;;;;;;;0.60;0.60;;;;;;;;;;4995339;28;20023;-20
2023/10/29 03:11:14;;;;;;;0.60;0.60;;;;;;;;;;4994368;28;20026;-20
2023/10/29 03:13:40;;;;;;;2.33;0.80;;;;;;;;;;4995192;28;20026;-22
2023/10/29 03:16:06;;;;;;;0.65;0.60;;;;;;;;;;4995532;28;20030;-18
2023/10/29 03:18:32;;;;;;;0.70;0.70;;;;;;;;;;4994852;28;20068;-18
2023/10/29 03:20:59;;;;;;;0.70;0.70;;;;;;;;;;4995204;28;20102;-18
2023/10/29 03:23:25;;;;;;;0.73;0.60;;;;;;;;;;4995084;28;20034;-22
2023/10/29 03:25:51;;;;;;;0.80;0.80;;;;;;;;;;4995341;28;20037;-20
2023/10/29 03:28:17;;;;;;;0.60;0.60;;;;;;;;;;4995454;28;20097;-22
2023/10/29 03:30:43;;;;;;;0.70;0.70;;;;;;;;;;4995367;28;20392;-20
2023/10/29 03:33:10;;;;;;;0.80;0.80;;;;;;;;;;4995034;28;20415;-20
2023/10/29 03:35:36;;;;;;;0.60;0.60;;;;;;;;;;4995100;28;20031;-19
2023/10/29 03:38:02;;;;;;;0.50;0.50;;;;;;;;;;4995320;28;20042;-20
2023/10/29 03:40:28;;;;;;;0.65;0.65;;;;;;;;;;4995018;28;20026;-18
2023/10/29 03:42:54;;;;;;;0.85;0.60;;;;;;;;;;4994975;28;20030;-21
2023/10/29 03:45:20;;;;;;;1.42;0.68;;;;;;;;;;4994925;28;20030;-22
2023/10/29 03:47:46;;;;;;;0.80;0.80;;;;;;;;;;4994984;28;20023;-21
2023/10/29 03:50:12;;;;;;;0.50;0.50;;;;;;;;;;4995209;28;20027;-21
2023/10/29 03:52:39;;;;;;;1.38;0.93;;;;;;;;;;4995126;28;20114;-21
2023/10/29 03:55:05;;;;;;;0.75;0.75;;;;;;;;;;4995177;28;20109;-19
2023/10/29 03:57:32;;;;;;;0.75;0.75;;;;;;;;;;4994915;28;20030;-19
2023/10/29 03:59:58;;;;;;;0.70;0.70;;;;;;;;;;4994826;28;20034;-17
2023/10/29 04:02:24;;;;;;;0.95;0.85;;;;;;;;;;4995037;28;20034;-18
2023/10/29 04:04:50;;;;;;;0.90;0.80;;;;;;;;;;4994641;28;20114;-23
2023/10/29 04:07:16;;;;;;;0.55;0.55;;;;;;;;;;4994811;28;20089;-23
2023/10/29 04:09:43;;;;;;;0.95;0.93;;;;;;;;;;4994794;28;20033;-23
2023/10/29 04:12:09;;;;;;;0.80;0.63;;;;;;;;;;4994953;28;20362;-20
2023/10/29 04:14:36;;;;;;;0.80;0.80;;;;;;;;;;4994671;28;20053;-24
2023/10/29 04:17:03;;;;;;;0.80;0.80;;;;;;;;;;4994730;28;20446;-20
2023/10/29 04:19:29;;;;;;;0.70;0.70;;;;;;;;;;4994983;28;20030;-19
2023/10/29 04:21:55;;;;;;;1.15;0.75;;;;;;;;;;4995083;28;20027;-18
2023/10/29 04:24:21;;;;;;;0.80;0.70;;;;;;;;;;4994848;28;20026;-17
2023/10/29 04:26:47;;;;;;;1.35;0.68;;;;;;;;;;4994628;28;20105;-21
2023/10/29 04:29:16;;;;;;;1.08;0.88;;;;;;;;;;4994843;28;20098;-19
2023/10/29 04:31:42;;;;;;;0.55;0.55;;;;;;;;;;4996653;28;20362;-21
2023/10/29 04:34:08;;;;;;;0.85;0.85;;;;;;;;;;4997951;28;20101;-19
2023/10/29 04:36:35;;;;;;;0.80;0.80;;;;;;;;;;4997999;28;20026;-19
2023/10/29 04:39:01;;;;;;;1.15;0.90;;;;;;;;;;4997948;28;20058;-19
2023/10/29 04:41:27;;;;;;;0.70;0.70;;;;;;;;;;4997905;28;20026;-24
2023/10/29 04:43:53;;;;;;;0.80;0.75;;;;;;;;;;4997692;28;20037;-19
2023/10/29 04:46:19;;;;;;;0.85;0.82;;;;;;;;;;4997823;28;20061;-21
2023/10/29 04:48:45;;;;;;;3.17;1.00;;;;;;;;;;4998032;28;20327;-20
2023/10/29 04:51:11;;;;;;;1.20;1.10;;;;;;;;;;4997995;28;20439;-19
2023/10/29 04:53:38;;;;;;;0.77;0.77;;;;;;;;;;4997779;28;20035;-20
2023/10/29 04:56:04;;;;;;;0.70;0.70;;;;;;;;;;4997582;28;20030;-20
2023/10/29 04:58:34;;;;;;;0.57;0.57;;;;;;;;;;4997635;28;20030;-23
2023/10/29 05:01:00;;;;;;;0.70;0.70;;;;;;;;;;4997494;28;20026;-22
2023/10/29 05:03:27;;;;;;;0.80;0.80;;;;;;;;;;4997476;28;20026;-21
2023/10/29 05:05:54;;;;;;;3.72;1.13;;;;;;;;;;4997701;28;20037;-22
2023/10/29 05:08:20;;;;;;;0.82;0.77;;;;;;;;;;4997454;28;20024;-25
2023/10/29 05:10:47;;;;;;;1.02;0.90;;;;;;;;;;4997421;28;20513;-22
2023/10/29 05:13:13;;;;;;;1.13;0.80;;;;;;;;;;4997363;28;20033;-21
2023/10/29 05:15:39;;;;;;;0.63;0.63;;;;;;;;;;4997583;28;20054;-24
2023/10/29 05:18:06;;;;;;;0.65;0.65;;;;;;;;;;4997196;28;20033;-19
2023/10/29 05:20:32;;;;;;;0.70;0.70;;;;;;;;;;4997473;28;20061;-20
2023/10/29 05:22:58;;;;;;;0.70;0.70;;;;;;;;;;4997251;28;20093;-18
2023/10/29 05:25:24;;;;;;;0.80;0.80;;;;;;;;;;4997058;28;20405;-20
2023/10/29 05:27:52;;;;;;;0.70;0.70;;;;;;;;;;4997088;28;20029;-18
2023/10/29 05:30:18;;;;;;;0.85;0.85;;;;;;;;;;4996988;28;20029;-17
2023/10/29 05:32:44;;;;;;;0.88;0.88;;;;;;;;;;4997045;28;20030;-21
2023/10/29 05:35:11;;;;;;;0.88;0.63;;;;;;;;;;4997160;28;20350;-19
2023/10/29 05:37:37;;;;;;;1.60;0.70;;;;;;;;;;4997141;28;20470;-20
2023/10/29 05:40:04;;;;;;;0.80;0.80;;;;;;;;;;4996844;28;20035;-19
2023/10/29 05:42:33;;;;;;;0.82;0.70;;;;;;;;;;4996951;28;20030;-18
2023/10/29 05:44:59;;;;;;;1.13;0.77;;;;;;;;;;4996905;28;20030;-24
2023/10/29 05:47:25;;;;;;;1.63;0.82;;;;;;;;;;4995760;28;20528;-21
2023/10/29 05:49:51;;;;;;;0.88;0.88;;;;;;;;;;4996647;28;20149;-18
2023/10/29 05:52:17;;;;;;;0.77;0.77;;;;;;;;;;4996745;28;20419;-18
2023/10/29 05:54:43;;;;;;;1.00;0.70;;;;;;;;;;4996519;28;20049;-21
2023/10/29 05:57:10;;;;;;;0.60;0.60;;;;;;;;;;4996725;28;20359;-20
2023/10/29 05:59:36;;;;;;;0.77;0.77;;;;;;;;;;4996741;28;20453;-20
2023/10/29 06:02:03;;;;;;;0.70;0.70;;;;;;;;;;4996602;28;20031;-21
2023/10/29 06:04:29;;;;;;;1.75;1.05;;;;;;;;;;4996052;28;20073;-23
2023/10/29 06:06:55;;;;;;;0.90;0.73;;;;;;;;;;4996259;28;20042;-21
2023/10/29 06:09:21;;;;;;;1.45;0.77;;;;;;;;;;4996199;28;20022;-18
2023/10/29 06:11:47;;;;;;;0.73;0.73;;;;;;;;;;4996415;28;20046;-18
2023/10/29 06:14:13;;;;;;;0.88;0.88;;;;;;;;;;4996441;28;20153;-17
2023/10/29 06:16:39;;;;;;;0.70;0.70;;;;;;;;;;4996391;28;20030;-19
2023/10/29 06:19:06;;;;;;;0.80;0.80;;;;;;;;;;4996010;28;20041;-22
2023/10/29 06:21:32;;;;;;;0.80;0.80;;;;;;;;;;4996032;28;20121;-20
2023/10/29 06:23:58;;;;;;;1.75;0.95;;;;;;;;;;4995852;28;20146;-21
2023/10/29 06:26:24;;;;;;;1.00;0.90;;;;;;;;;;4996220;28;20029;-21
2023/10/29 06:28:50;;;;;;;2.55;1.85;;;;;;;;;;4996194;28;20453;-20
2023/10/29 06:31:16;;;;;;;0.75;0.75;;;;;;;;;;4996170;28;20405;-23
2023/10/29 06:33:43;;;;;;;1.02;0.82;;;;;;;;;;4995774;28;20040;-19
2023/10/29 06:36:09;;;;;;;1.30;1.02;;;;;;;;;;4996038;28;20041;-18
2023/10/29 06:38:35;;;;;;;0.90;0.90;;;;;;;;;;4995774;28;20045;-21
2023/10/29 06:41:02;;;;;;;0.50;0.50;;;;;;;;;;4995989;28;20084;-21
2023/10/29 06:43:29;;;;;;;0.70;0.70;;;;;;;;;;4995596;28;20030;-21
2023/10/29 06:45:56;;;;;;;0.80;0.80;;;;;;;;;;4996142;28;20026;-21
2023/10/29 06:48:22;;;;;;;0.90;0.85;;;;;;;;;;4995941;28;20400;-21
2023/10/29 06:50:49;;;;;;;0.80;0.80;;;;;;;;;;4995836;28;20026;-20
2023/10/29 06:53:15;;;;;;;0.80;0.80;;;;;;;;;;4993909;28;20045;-20
2023/10/29 06:55:42;;;;;;;1.15;0.85;;;;;;;;;;4995508;28;20049;-21
2023/10/29 06:58:08;;;;;;;1.05;0.90;;;;;;;;;;4995479;28;20030;-21
2023/10/29 07:00:34;;;;;;;0.90;0.90;;;;;;;;;;4995726;28;20035;-21
2023/10/29 07:03:01;;;;;;;1.02;0.90;;;;;;;;;;4995349;28;20030;-19
2023/10/29 07:05:28;;;;;;;2.17;0.93;;;;;;;;;;4999016;28;20053;-22
2023/10/29 07:07:54;;;;;;;0.90;0.80;;;;;;;;;;4995637;28;20019;-21
2023/10/29 07:10:20;;;;;;;0.88;0.88;;;;;;;;;;4995338;28;20058;-22
2023/10/29 07:12:46;;;;;;;0.68;0.68;;;;;;;;;;4995249;28;20023;-19
2023/10/29 07:15:12;;;;;;;0.88;0.82;;;;;;;;;;4995312;28;20377;-24
2023/10/29 07:17:39;;;;;;;1.17;1.08;;;;;;;;;;4995264;28;20026;-21
2023/10/29 07:20:05;;;;;;;1.17;0.98;;;;;;;;;;4995253;28;20042;-22
2023/10/29 07:22:31;;;;;;;0.90;0.90;;;;;;;;;;4994188;28;20053;-20
2023/10/29 07:24:57;;;;;;;0.70;0.70;;;;;;;;;;4994182;28;20385;-21
2023/10/29 07:27:23;;;;;;;1.25;1.17;;;;;;;;;;4995461;28;20025;-21
2023/10/29 07:29:50;;;;;;;0.80;0.80;;;;;;;;;;4995157;28;20026;-20
2023/10/29 07:32:16;;;;;;;0.98;0.68;;;;;;;;;;4995501;28;20368;-20
2023/10/29 07:34:42;;;;;;;0.65;0.65;;;;;;;;;;4995366;28;20030;-19
2023/10/29 07:37:09;;;;;;;0.98;0.98;;;;;;;;;;4995071;28;20030;-19
2023/10/29 07:39:36;;;;;;;0.70;0.70;;;;;;;;;;4995032;28;20030;-21
2023/10/29 07:42:02;;;;;;;0.80;0.80;;;;;;;;;;4995003;28;20031;-16
2023/10/29 07:44:28;;;;;;;1.33;1.13;;;;;;;;;;4994933;28;20023;-18
2023/10/29 07:46:54;;;;;;;0.98;0.80;;;;;;;;;;4995258;28;20014;-21
2023/10/29 07:49:21;;;;;;;1.10;1.00;;;;;;;;;;4995235;28;20331;-20
2023/10/29 07:51:49;;;;;;;1.05;1.05;;;;;;;;;;4995406;28;20081;-22
2023/10/29 07:54:16;;;;;;;1.00;0.90;;;;;;;;;;4994924;28;20034;-19
2023/10/29 07:56:42;;;;;;;1.08;0.90;;;;;;;;;;4994953;28;20027;-19
2023/10/29 07:59:08;;;;;;;1.13;1.10;;;;;;;;;;4993931;28;20117;-20
2023/10/29 08:01:34;;;;;;;0.70;0.70;;;;;;;;;;4994893;28;20026;-26
2023/10/29 08:04:00;;;;;;;0.88;0.88;;;;;;;;;;4995095;28;20054;-19
2023/10/29 08:06:27;;;;;;;0.80;0.80;;;;;;;;;;4998863;28;20372;-20
2023/10/29 08:08:53;;;;;;;1.17;0.98;;;;;;;;;;4998776;28;20022;-17
2023/10/29 08:11:20;;;;;;;0.93;0.93;;;;;;;;;;4998483;28;20033;-19
2023/10/29 08:13:46;;;;;;;1.15;0.90;;;;;;;;;;4998609;28;20018;-18
2023/10/29 08:16:13;;;;;;;1.00;0.90;;;;;;;;;;4998882;28;20029;-19
2023/10/29 08:18:39;;;;;;;0.57;0.57;;;;;;;;;;4998425;28;20458;-18
2023/10/29 08:21:06;;;;;;;0.88;0.77;;;;;;;;;;4998549;28;20061;-19
2023/10/29 08:23:32;;;;;;;1.00;1.00;;;;;;;;;;4998237;28;20431;-18
2023/10/29 08:25:58;;;;;;;1.80;1.10;;;;;;;;;;4998408;28;20026;-20
2023/10/29 08:28:27;;;;;;;0.85;0.85;;;;;;;;;;4998181;28;20026;-20
2023/10/29 08:30:54;;;;;;;0.77;0.77;;;;;;;;;;4998118;28;20023;-17
2023/10/29 08:33:20;;;;;;;0.75;0.70;;;;;;;;;;4998310;28;20026;-21
2023/10/29 08:35:47;;;;;;;1.35;0.90;;;;;;;;;;4998577;28;20065;-20
2023/10/29 08:38:13;;;;;;;0.98;0.90;;;;;;;;;;4998289;28;20034;-18
2023/10/29 08:40:39;;;;;;;1.15;1.00;;;;;;;;;;4998255;28;20397;-19
2023/10/29 08:43:06;;;;;;;1.10;1.00;;;;;;;;;;4997854;28;20033;-19
2023/10/29 08:45:32;;;;;;;0.70;0.70;;;;;;;;;;4997831;28;20338;-22
2023/10/29 08:47:58;;;;;;;0.80;0.75;;;;;;;;;;4996856;28;20507;-22
2023/10/29 08:50:24;;;;;;;1.40;1.02;;;;;;;;;;4997772;28;20023;-22
2023/10/29 08:52:50;;;;;;;0.80;0.80;;;;;;;;;;4997963;28;20334;-20
2023/10/29 08:55:16;;;;;;;3.08;1.00;;;;;;;;;;4997726;28;20481;-19
2023/10/29 08:57:43;;;;;;;1.40;1.13;;;;;;;;;;4997913;28;20027;-18
2023/10/29 09:00:09;;;;;;;1.95;1.10;;;;;;;;;;4997614;28;20088;-18
2023/10/29 09:02:35;;;;;;;1.67;1.00;;;;;;;;;;4997495;28;20034;-21
2023/10/29 09:05:02;;;;;;;1.45;0.90;;;;;;;;;;4996343;28;20113;-19
2023/10/29 09:07:28;;;;;;;1.00;0.85;;;;;;;;;;4997473;28;20030;-21
2023/10/29 09:09:54;;;;;;;1.00;1.00;;;;;;;;;;4997434;28;20026;-21
2023/10/29 09:12:23;;;;;;;0.70;0.70;;;;;;;;;;4997821;28;20022;-22
2023/10/29 09:14:49;;;;;;;0.75;0.75;;;;;;;;;;4997360;28;20030;-19
2023/10/29 09:17:16;;;;;;;1.85;0.95;;;;;;;;;;4996877;28;20461;-19
2023/10/29 09:19:42;;;;;;;1.30;1.00;;;;;;;;;;4997252;28;20034;-20
2023/10/29 09:22:08;;;;;;;1.25;1.15;;;;;;;;;;4997407;28;20038;-20
2023/10/29 09:24:34;;;;;;;1.00;1.00;;;;;;;;;;4997332;28;20450;-19
2023/10/29 09:27:00;;;;;;;1.00;0.85;;;;;;;;;;4997339;28;20097;-24
2023/10/29 09:29:27;;;;;;;1.27;1.08;;;;;;;;;;4997051;28;20022;-22
2023/10/29 09:31:53;;;;;;;3.22;0.75;;;;;;;;;;4997511;28;20101;-19
2023/10/29 09:34:19;;;;;;;1.05;0.90;;;;;;;;;;4996953;28;20030;-20
2023/10/29 09:36:45;;;;;;;0.95;0.93;;;;;;;;;;4996918;28;20040;-17
2023/10/29 09:39:12;;;;;;;0.88;0.82;;;;;;;;;;4995925;28;20022;-18
2023/10/29 09:41:38;;;;;;;1.00;1.00;;;;;;;;;;4997149;28;20026;-21
2023/10/29 09:44:10;;;;;;;0.95;0.80;;;;;;;;;;4996907;28;20464;-19
2023/10/29 09:46:37;;;;;;;1.25;1.15;;;;;;;;;;4997058;28;20114;-22
2023/10/29 09:49:04;;;;;;;1.20;0.80;;;;;;;;;;4996671;28;20035;-20
2023/10/29 09:51:30;;;;;;;0.90;0.90;;;;;;;;;;4996877;28;20042;-20
2023/10/29 09:53:59;;;;;;;1.30;1.20;;;;;;;;;;4996522;28;20458;-22
2023/10/29 09:56:26;;;;;;;1.00;0.90;;;;;;;;;;4995533;28;20113;-20
2023/10/29 09:58:52;;;;;;;3.47;1.00;;;;;;;;;;4996440;28;20030;-21
2023/10/29 10:01:19;;;;;;;0.90;0.90;;;;;;;;;;4996450;28;20340;-19
2023/10/29 10:03:48;;;;;;;0.82;0.82;;;;;;;;;;4995862;28;20089;-19
2023/10/29 10:06:14;;;;;;;0.82;0.82;;;;;;;;;;4996298;28;20108;-19
2023/10/29 10:08:40;;;;;;;1.98;1.02;;;;;;;;;;4996283;28;20026;-24
2023/10/29 10:11:21;;;;;;;1.95;1.13;;;;;;;;;;4995347;28;20164;-19
2023/10/29 10:13:47;;;;;;;1.97;1.00;;;;;;;;;;4996208;28;20043;-20
2023/10/29 10:16:14;;;;;;;1.45;0.80;;;;;;;;;;4996184;28;20109;-19
2023/10/29 10:18:54;;;;;;;1.50;1.00;;;;;;;;;;4995202;28;20038;-19
2023/10/29 10:21:21;;;;;;;1.00;0.90;;;;;;;;;;4995144;28;20030;-18
2023/10/29 10:23:51;;;;;;;1.17;1.08;;;;;;;;;;4995952;28;20461;-21
2023/10/29 10:26:28;;;;;;;1.23;0.98;;;;;;;;;;4996235;28;20406;-21
2023/10/29 10:28:55;;;;;;;1.38;1.10;;;;;;;;;;4995377;28;20077;-24
2023/10/29 10:31:21;;;;;;;1.15;1.00;;;;;;;;;;4996177;28;20030;-21
2023/10/29 10:33:48;;;;;;;0.90;0.90;;;;;;;;;;4995741;28;20105;-19
2023/10/29 10:36:14;;;;;;;1.88;0.82;;;;;;;;;;4995849;28;20026;-18
2023/10/29 10:38:53;;;;;;;1.38;1.27;;;;;;;;;;4995771;28;20042;-19
2023/10/29 10:41:19;;;;;;;1.50;1.40;;;;;;;;;;4996017;28;20402;-19
2023/10/29 10:43:45;;;;;;;1.67;1.10;;;;;;;;;;4995614;28;20085;-21
2023/10/29 10:46:13;;;;;;;1.00;0.90;;;;;;;;;;4995831;28;20026;-22
2023/10/29 10:48:41;;;;;;;2.20;0.88;;;;;;;;;;4995582;28;20026;-22
2023/10/29 10:51:11;;;;;;;0.93;0.90;;;;;;;;;;4995555;28;20099;-18
2023/10/29 10:53:39;;;;;;;1.48;1.00;;;;;;;;;;4995468;28;20029;-25
2023/10/29 10:56:08;;;;;;;0.80;0.65;;;;;;;;;;4996085;28;20442;-23
2023/10/29 10:58:35;;;;;;;0.90;0.90;;;;;;;;;;4995509;28;20049;-21
2023/10/29 11:01:01;;;;;;;0.98;0.90;;;;;;;;;;4995712;28;20026;-21
2023/10/29 11:03:30;;;;;;;0.80;0.80;;;;;;;;;;4995290;28;20541;-18
2023/10/29 11:05:57;;;;;;;2.08;1.10;;;;;;;;;;4995364;28;20046;-20
2023/10/29 11:08:23;;;;;;;1.65;1.02;;;;;;;;;;4995377;28;20033;-19
2023/10/29 11:10:50;;;;;;;0.82;0.82;;;;;;;;;;4995372;28;20472;-21
2023/10/29 11:13:20;;;;;;;1.13;0.90;;;;;;;;;;4994252;28;20022;-20
2023/10/29 11:15:47;;;;;;;0.90;0.90;;;;;;;;;;4995566;28;20354;-17
2023/10/29 11:18:13;;;;;;;1.45;0.90;;;;;;;;;;4995315;28;20401;-22
2023/10/29 11:20:41;;;;;;;1.23;0.98;;;;;;;;;;4995250;28;20030;-18
2023/10/29 11:23:07;;;;;;;1.25;0.90;;;;;;;;;;4995194;28;20361;-23
2023/10/29 11:25:34;;;;;;;1.42;0.90;;;;;;;;;;4995095;28;20040;-19
2023/10/29 11:28:01;;;;;;;1.30;1.00;;;;;;;;;;4995178;28;20030;-18
2023/10/29 11:30:28;;;;;;;0.98;0.93;;;;;;;;;;4995155;28;20097;-19
2023/10/29 11:33:09;;;;;;;2.45;0.82;;;;;;;;;;4995022;28;20561;-19
2023/10/29 11:35:36;;;;;;;0.80;0.80;;;;;;;;;;4995368;28;20125;-22
2023/10/29 11:38:22;;;;;;;0.90;0.90;;;;;;;;;;4995086;28;20080;-23
2023/10/29 11:40:49;;;;;;;1.10;1.00;;;;;;;;;;4998592;28;20041;-17
2023/10/29 11:43:21;;;;;;;1.77;1.27;;;;;;;;;;4998910;28;20042;-21
2023/10/29 11:45:47;;;;;;;;;;;;;;;;;;4999591;28;20034;-20
2023/10/29 11:48:16;;;;;;;1.92;1.00;;;;;;;;;;4998943;28;20253;-18
2023/10/29 11:51:02;;;;;;;1.00;0.98;;;;;;;;;;4999148;28;20029;-19
2023/10/29 11:53:29;;;;;;;0.60;0.60;;;;;;;;;;4998715;28;20074;-20
2023/10/29 11:55:59;;;;;;;1.00;0.90;;;;;;;;;;4998754;28;20037;-22
2023/10/29 11:58:26;;;;;;;0.98;0.85;;;;;;;;;;4998782;28;20037;-20
2023/10/29 12:00:53;;;;;;;1.05;0.90;;;;;;;;;;4998696;28;20027;-20
2023/10/29 12:03:20;;;;;;;1.73;1.13;;;;;;;;;;4998823;28;20346;-19
2023/10/29 12:05:52;;;;;;;1.25;0.90;;;;;;;;;;4998651;28;20114;-20
2023/10/29 12:08:19;;;;;;;1.75;1.65;;;;;;;;;;4998600;28;20365;-21
2023/10/29 12:10:49;;;;;;;1.15;1.00;;;;;;;;;;4998533;28;20033;-19
2023/10/29 12:13:18;;;;;;;2.17;1.25;;;;;;;;;;4998388;28;20034;-21
2023/10/29 12:16:00;;;;;;;1.83;1.08;;;;;;;;;;4998497;28;20080;-20
2023/10/29 12:18:27;;;;;;;0.93;0.77;;;;;;;;;;4998690;28;20391;-20
2023/10/29 12:21:06;;;;;;;1.45;1.02;;;;;;;;;;4998619;28;20405;-24
2023/10/29 12:23:33;;;;;;;1.50;0.98;;;;;;;;;;4998392;28;20046;-20
2023/10/29 12:26:04;;;;;;;1.27;1.00;;;;;;;;;;4998183;28;20117;-21
2023/10/29 12:28:31;;;;;;;1.17;1.10;;;;;;;;;;4998272;28;20335;-21
2023/10/29 12:30:58;;;;;;;1.13;0.93;;;;;;;;;;4998164;28;20026;-26
2023/10/29 12:33:29;;;;;;;1.35;1.10;;;;;;;;;;4998340;28;20027;-22
2023/10/29 12:35:56;;;;;;;1.02;0.93;;;;;;;;;;4998672;28;20030;-21
2023/10/29 12:38:23;;;;;;;0.82;0.80;;;;;;;;;;4998139;28;20101;-21
2023/10/29 12:41:06;;;;;;;0.85;0.82;;;;;;;;;;4998254;28;20041;-20
2023/10/29 12:43:40;;;;;;;1.73;1.27;;;;;;;;;;4997865;28;20092;-18
2023/10/29 12:46:10;;;;;;;1.02;0.95;;;;;;;;;;4997806;28;20030;-19
2023/10/29 12:48:56;;;;;;;1.55;0.90;;;;;;;;;;4998416;28;20141;-19
2023/10/29 12:51:23;;;;;;;1.20;1.10;;;;;;;;;;4997074;28;20033;-18
2023/10/29 12:53:49;;;;;;;1.23;0.93;;;;;;;;;;4997972;28;20369;-17
2023/10/29 12:56:15;;;;;;;0.75;0.75;;;;;;;;;;4997725;28;20030;-18
2023/10/29 12:58:42;;;;;;;1.38;1.25;;;;;;;;;;4997888;28;20353;-20
2023/10/29 13:01:08;;;;;;;0.90;0.90;;;;;;;;;;4997876;28;20026;-20
2023/10/29 13:03:34;;;;;;;1.10;1.08;;;;;;;;;;4997590;28;20362;-21
2023/10/29 13:06:00;;;;;;;1.13;1.02;;;;;;;;;;4997326;28;20039;-24
2023/10/29 13:08:27;;;;;;;1.58;0.80;;;;;;;;;;4997438;28;20040;-21
2023/10/29 13:10:53;;;;;;;1.35;1.08;;;;;;;;;;4997434;28;20061;-20
2023/10/29 13:13:22;;;;;;;0.95;0.95;;;;;;;;;;4996402;28;20022;-18
2023/10/29 13:15:49;;;;;;;0.80;0.80;;;;;;;;;;4997369;28;20117;-20
2023/10/29 13:18:15;;;;;;;1.02;0.93;;;;;;;;;;4997591;28;20034;-21
2023/10/29 13:20:41;;;;;;;1.55;1.30;;;;;;;;;;4997200;28;20073;-23
2023/10/29 13:23:07;;;;;;;1.02;1.00;;;;;;;;;;4997137;28;20030;-20
2023/10/29 13:25:33;;;;;;;1.23;1.10;;;;;;;;;;4997066;28;20026;-19
2023/10/29 13:28:00;;;;;;;3.63;1.23;;;;;;;;;;4997112;28;20101;-19
2023/10/29 13:30:27;;;;;;;1.00;1.00;;;;;;;;;;4997044;28;20100;-20
2023/10/29 13:32:53;;;;;;;1.20;1.10;;;;;;;;;;4996931;28;20050;-21
2023/10/29 13:35:19;;;;;;;1.10;0.98;;;;;;;;;;4997471;28;20034;-19
2023/10/29 13:37:45;;;;;;;3.05;1.33;;;;;;;;;;4996917;28;20030;-20
2023/10/29 13:40:12;;;;;;;0.98;0.80;;;;;;;;;;4997158;28;20027;-20
2023/10/29 13:42:38;;;;;;;1.20;1.10;;;;;;;;;;4997152;28;20034;-21
2023/10/29 13:45:05;;;;;;;1.00;0.90;;;;;;;;;;4996957;28;20037;-19
2023/10/29 13:47:31;;;;;;;1.02;1.00;;;;;;;;;;4997029;28;20047;-22
2023/10/29 13:49:57;;;;;;;1.02;0.93;;;;;;;;;;4996707;28;20424;-19
2023/10/29 13:52:23;;;;;;;1.30;1.13;;;;;;;;;;4996600;28;20022;-22
2023/10/29 13:54:50;;;;;;;1.10;1.00;;;;;;;;;;4996568;28;20036;-19
2023/10/29 13:57:16;;;;;;;1.10;0.90;;;;;;;;;;4997059;28;20030;-21
2023/10/29 13:59:42;;;;;;;1.30;1.08;;;;;;;;;;4996781;28;20080;-19
2023/10/29 14:02:08;;;;;;;2.42;1.00;;;;;;;;;;4996228;28;20084;-23
2023/10/29 14:04:34;;;;;;;1.15;1.00;;;;;;;;;;4996341;28;20133;-19
2023/10/29 14:07:01;;;;;;;1.00;0.75;;;;;;;;;;4996311;28;20022;-20
2023/10/29 14:09:28;;;;;;;1.45;0.90;;;;;;;;;;4996263;28;20046;-22
2023/10/29 14:11:54;;;;;;;1.38;1.27;;;;;;;;;;4996199;28;20080;-19
2023/10/29 14:14:22;;;;;;;0.90;0.90;;;;;;;;;;4995637;28;20409;-20
2023/10/29 14:16:48;;;;;;;1.85;1.27;;;;;;;;;;4996216;28;20110;-22
2023/10/29 14:19:14;;;;;;;1.30;1.00;;;;;;;;;;4996404;28;20022;-20
2023/10/29 14:21:40;;;;;;;1.38;1.27;;;;;;;;;;4996384;28;20478;-20
2023/10/29 14:24:07;;;;;;;0.90;0.90;;;;;;;;;;4996261;28;20030;-19
2023/10/29 14:26:33;;;;;;;1.17;1.08;;;;;;;;;;4996033;28;20105;-18
2023/10/29 14:28:59;;;;;;;1.20;1.10;;;;;;;;;;4995043;28;20425;-19
2023/10/29 14:31:26;;;;;;;0.90;0.90;;;;;;;;;;4994929;28;20457;-18
2023/10/29 14:33:52;;;;;;;1.00;1.00;;;;;;;;;;4995771;28;20041;-22
2023/10/29 14:36:19;;;;;;;1.42;1.33;;;;;;;;;;4996072;28;20026;-22
2023/10/29 14:38:45;;;;;;;0.95;0.95;;;;;;;;;;4996041;28;20351;-20
2023/10/29 14:41:16;;;;;;;1.05;0.93;;;;;;;;;;4995760;28;20033;-21